sensor_id;sensor_type;location;lat;lon;timestamp;temperature;humidity
69261;DHT22;56378;52.404;20.816;2024-02-14T00:02:21;3.40;99.90
69261;DHT22;56378;52.404;20.816;2024-02-14T00:04:47;3.40;99.90
69261;DHT22;56378;52.404;20.816;2024-02-14T00:07:13;3.40;99.90
69261;DHT22;56378;52.404;20.816;2024-02-14T00:09:40;3.40;99.90
69261;DHT22;56378;52.404;20.816;2024-02-14T00:24:16;3.30;99.90
69261;DHT22;56378;52.404;20.816;2024-02-14T00:26:43;3.20;99.90
69261;DHT22;56378;52.404;20.816;2024-02-14T00:29:09;3.20;99.90
69261;DHT22;56378;52.404;20.816;2024-02-14T00:31:34;3.20;99.90
69261;DHT22;56378;52.404;20.816;2024-02-14T00:34:00;3.20;99.90
69261;DHT22;56378;52.404;20.816;2024-02-14T00:36:26;3.20;99.90
69261;DHT22;56378;52.404;20.816;2024-02-14T00:38:51;3.10;99.90
69261;DHT22;56378;52.404;20.816;2024-02-14T00:41:17;3.10;99.90
69261;DHT22;56378;52.404;20.816;2024-02-14T00:43:43;3.00;99.90
69261;DHT22;56378;52.404;20.816;2024-02-14T00:46:08;2.90;99.90
69261;DHT22;56378;52.404;20.816;2024-02-14T00:48:34;2.90;99.90
69261;DHT22;56378;52.404;20.816;2024-02-14T00:51:00;2.70;99.90
69261;DHT22;56378;52.404;20.816;2024-02-14T00:53:25;2.60;99.90
69261;DHT22;56378;52.404;20.816;2024-02-14T00:55:51;2.50;99.90
69261;DHT22;56378;52.404;20.816;2024-02-14T00:58:17;2.40;99.90
69261;DHT22;56378;52.404;20.816;2024-02-14T01:00:43;2.30;99.90
69261;DHT22;56378;52.404;20.816;2024-02-14T01:03:09;2.20;99.90
69261;DHT22;56378;52.404;20.816;2024-02-14T01:05:38;2.10;99.90
69261;DHT22;56378;52.404;20.816;2024-02-14T01:08:04;2.00;99.90
69261;DHT22;56378;52.404;20.816;2024-02-14T01:10:30;1.90;99.90
69261;DHT22;56378;52.404;20.816;2024-02-14T01:12:59;1.80;99.90
69261;DHT22;56378;52.404;20.816;2024-02-14T01:15:24;1.70;99.90
69261;DHT22;56378;52.404;20.816;2024-02-14T01:17:50;1.60;99.90
69261;DHT22;56378;52.404;20.816;2024-02-14T01:20:16;1.50;99.90
69261;DHT22;56378;52.404;20.816;2024-02-14T01:22:42;1.40;99.90
69261;DHT22;56378;52.404;20.816;2024-02-14T01:25:08;1.30;99.90
69261;DHT22;56378;52.404;20.816;2024-02-14T01:27:35;1.30;99.90
69261;DHT22;56378;52.404;20.816;2024-02-14T01:30:01;1.20;99.90
69261;DHT22;56378;52.404;20.816;2024-02-14T01:32:27;1.10;99.90
69261;DHT22;56378;52.404;20.816;2024-02-14T01:34:55;1.00;99.90
69261;DHT22;56378;52.404;20.816;2024-02-14T01:37:20;1.00;99.90
69261;DHT22;56378;52.404;20.816;2024-02-14T01:39:46;0.90;99.90
69261;DHT22;56378;52.404;20.816;2024-02-14T01:42:12;0.80;99.90
69261;DHT22;56378;52.404;20.816;2024-02-14T01:44:37;0.80;99.90
69261;DHT22;56378;52.404;20.816;2024-02-14T01:47:04;0.70;99.90
69261;DHT22;56378;52.404;20.816;2024-02-14T01:49:33;0.70;99.90
69261;DHT22;56378;52.404;20.816;2024-02-14T01:52:02;0.60;99.90
69261;DHT22;56378;52.404;20.816;2024-02-14T01:54:29;0.50;99.90
69261;DHT22;56378;52.404;20.816;2024-02-14T01:56:56;0.40;99.90
69261;DHT22;56378;52.404;20.816;2024-02-14T01:59:24;0.40;99.90
69261;DHT22;56378;52.404;20.816;2024-02-14T02:01:52;0.30;99.90
69261;DHT22;56378;52.404;20.816;2024-02-14T02:04:18;0.20;99.90
69261;DHT22;56378;52.404;20.816;2024-02-14T02:06:44;0.10;99.90
69261;DHT22;56378;52.404;20.816;2024-02-14T02:09:10;0.10;99.90
69261;DHT22;56378;52.404;20.816;2024-02-14T02:11:47;0.00;99.90
69261;DHT22;56378;52.404;20.816;2024-02-14T02:14:14;-0.10;99.90
69261;DHT22;56378;52.404;20.816;2024-02-14T02:16:40;-0.10;99.90
69261;DHT22;56378;52.404;20.816;2024-02-14T02:19:06;-0.10;99.90
69261;DHT22;56378;52.404;20.816;2024-02-14T02:21:38;-0.20;99.90
69261;DHT22;56378;52.404;20.816;2024-02-14T02:24:04;-0.20;99.90
69261;DHT22;56378;52.404;20.816;2024-02-14T02:26:30;-0.20;99.90
69261;DHT22;56378;52.404;20.816;2024-02-14T02:28:56;-0.30;99.90
69261;DHT22;56378;52.404;20.816;2024-02-14T02:31:22;-0.30;99.90
69261;DHT22;56378;52.404;20.816;2024-02-14T02:33:48;-0.40;99.90
69261;DHT22;56378;52.404;20.816;2024-02-14T02:36:15;-0.40;99.90
69261;DHT22;56378;52.404;20.816;2024-02-14T02:38:41;-0.40;99.90
69261;DHT22;56378;52.404;20.816;2024-02-14T02:41:07;-0.50;99.90
69261;DHT22;56378;52.404;20.816;2024-02-14T02:43:33;-0.60;99.90
69261;DHT22;56378;52.404;20.816;2024-02-14T02:45:59;-0.60;99.90
69261;DHT22;56378;52.404;20.816;2024-02-14T02:48:25;-0.60;99.90
69261;DHT22;56378;52.404;20.816;2024-02-14T02:50:51;-0.70;99.90
69261;DHT22;56378;52.404;20.816;2024-02-14T02:53:18;-0.80;99.90
69261;DHT22;56378;52.404;20.816;2024-02-14T02:55:44;-0.90;99.90
69261;DHT22;56378;52.404;20.816;2024-02-14T02:58:10;-0.90;99.90
69261;DHT22;56378;52.404;20.816;2024-02-14T03:00:36;-1.00;99.90
69261;DHT22;56378;52.404;20.816;2024-02-14T03:03:02;-1.00;99.90
69261;DHT22;56378;52.404;20.816;2024-02-14T03:05:31;-1.00;99.90
69261;DHT22;56378;52.404;20.816;2024-02-14T03:07:59;-1.10;99.90
69261;DHT22;56378;52.404;20.816;2024-02-14T03:10:25;-1.20;99.90
69261;DHT22;56378;52.404;20.816;2024-02-14T03:12:51;-1.30;99.90
69261;DHT22;56378;52.404;20.816;2024-02-14T03:15:18;-1.30;99.90
69261;DHT22;56378;52.404;20.816;2024-02-14T03:17:44;-1.40;99.90
69261;DHT22;56378;52.404;20.816;2024-02-14T03:20:11;-1.40;99.90
69261;DHT22;56378;52.404;20.816;2024-02-14T03:22:41;-1.50;99.90
69261;DHT22;56378;52.404;20.816;2024-02-14T03:25:15;-1.60;99.90
69261;DHT22;56378;52.404;20.816;2024-02-14T03:27:42;-1.60;99.90
69261;DHT22;56378;52.404;20.816;2024-02-14T03:30:08;-1.60;99.90
69261;DHT22;56378;52.404;20.816;2024-02-14T03:32:34;-1.70;99.90
69261;DHT22;56378;52.404;20.816;2024-02-14T03:35:00;-1.80;99.90
69261;DHT22;56378;52.404;20.816;2024-02-14T03:37:26;-1.80;99.90
69261;DHT22;56378;52.404;20.816;2024-02-14T03:39:52;-1.80;99.90
69261;DHT22;56378;52.404;20.816;2024-02-14T03:42:18;-1.80;99.90
69261;DHT22;56378;52.404;20.816;2024-02-14T03:44:45;-1.90;99.90
69261;DHT22;56378;52.404;20.816;2024-02-14T03:47:12;-1.90;99.90
69261;DHT22;56378;52.404;20.816;2024-02-14T03:49:39;-2.00;99.90
69261;DHT22;56378;52.404;20.816;2024-02-14T03:52:06;-2.00;99.90
69261;DHT22;56378;52.404;20.816;2024-02-14T03:54:38;-2.00;99.90
69261;DHT22;56378;52.404;20.816;2024-02-14T03:57:04;-2.10;99.90
69261;DHT22;56378;52.404;20.816;2024-02-14T03:59:36;-2.10;99.90
69261;DHT22;56378;52.404;20.816;2024-02-14T04:02:01;-2.20;99.90
69261;DHT22;56378;52.404;20.816;2024-02-14T04:04:27;-2.20;99.90
69261;DHT22;56378;52.404;20.816;2024-02-14T04:06:54;-2.20;99.90
69261;DHT22;56378;52.404;20.816;2024-02-14T04:09:19;-2.20;99.90
69261;DHT22;56378;52.404;20.816;2024-02-14T04:11:45;-2.30;99.90
69261;DHT22;56378;52.404;20.816;2024-02-14T04:14:11;-2.30;99.90
69261;DHT22;56378;52.404;20.816;2024-02-14T04:16:36;-2.20;99.90
69261;DHT22;56378;52.404;20.816;2024-02-14T04:19:02;-2.30;99.90
69261;DHT22;56378;52.404;20.816;2024-02-14T04:21:28;-2.30;99.90
69261;DHT22;56378;52.404;20.816;2024-02-14T04:23:54;-2.30;99.90
69261;DHT22;56378;52.404;20.816;2024-02-14T04:26:21;-2.30;99.90
69261;DHT22;56378;52.404;20.816;2024-02-14T04:28:47;-2.30;99.90
69261;DHT22;56378;52.404;20.816;2024-02-14T04:31:13;-2.40;99.90
69261;DHT22;56378;52.404;20.816;2024-02-14T04:33:39;-2.40;99.90
69261;DHT22;56378;52.404;20.816;2024-02-14T04:36:05;-2.40;99.90
69261;DHT22;56378;52.404;20.816;2024-02-14T04:38:31;-2.40;99.90
69261;DHT22;56378;52.404;20.816;2024-02-14T04:40:57;-2.30;99.90
69261;DHT22;56378;52.404;20.816;2024-02-14T04:43:25;-2.30;99.90
69261;DHT22;56378;52.404;20.816;2024-02-14T04:45:52;-2.40;99.90
69261;DHT22;56378;52.404;20.816;2024-02-14T04:48:20;-2.40;99.90
69261;DHT22;56378;52.404;20.816;2024-02-14T04:50:46;-2.40;99.90
69261;DHT22;56378;52.404;20.816;2024-02-14T04:53:12;-2.40;99.90
69261;DHT22;56378;52.404;20.816;2024-02-14T04:55:37;-2.40;99.90
69261;DHT22;56378;52.404;20.816;2024-02-14T04:58:03;-2.40;99.90
69261;DHT22;56378;52.404;20.816;2024-02-14T05:00:30;-2.30;99.90
69261;DHT22;56378;52.404;20.816;2024-02-14T05:02:56;-2.30;99.90
69261;DHT22;56378;52.404;20.816;2024-02-14T05:05:22;-2.20;99.90
69261;DHT22;56378;52.404;20.816;2024-02-14T05:07:48;-2.20;99.90
69261;DHT22;56378;52.404;20.816;2024-02-14T05:10:14;-2.30;99.90
69261;DHT22;56378;52.404;20.816;2024-02-14T05:12:40;-2.30;99.90
69261;DHT22;56378;52.404;20.816;2024-02-14T05:15:07;-2.30;99.90
69261;DHT22;56378;52.404;20.816;2024-02-14T05:17:33;-2.30;99.90
69261;DHT22;56378;52.404;20.816;2024-02-14T05:20:01;-2.30;99.90
69261;DHT22;56378;52.404;20.816;2024-02-14T05:22:26;-2.30;99.90
69261;DHT22;56378;52.404;20.816;2024-02-14T05:24:53;-2.30;99.90
69261;DHT22;56378;52.404;20.816;2024-02-14T05:27:18;-2.20;99.90
69261;DHT22;56378;52.404;20.816;2024-02-14T05:29:45;-2.30;99.90
69261;DHT22;56378;52.404;20.816;2024-02-14T05:32:11;-2.30;99.90
69261;DHT22;56378;52.404;20.816;2024-02-14T05:34:37;-2.30;99.90
69261;DHT22;56378;52.404;20.816;2024-02-14T05:37:02;-2.30;99.90
69261;DHT22;56378;52.404;20.816;2024-02-14T05:39:28;-2.30;99.90
69261;DHT22;56378;52.404;20.816;2024-02-14T05:41:54;-2.30;99.90
69261;DHT22;56378;52.404;20.816;2024-02-14T05:44:20;-2.40;99.90
69261;DHT22;56378;52.404;20.816;2024-02-14T05:46:48;-2.40;99.90
69261;DHT22;56378;52.404;20.816;2024-02-14T05:49:13;-2.40;99.90
69261;DHT22;56378;52.404;20.816;2024-02-14T05:51:39;-2.30;99.90
69261;DHT22;56378;52.404;20.816;2024-02-14T05:54:06;-2.20;99.90
69261;DHT22;56378;52.404;20.816;2024-02-14T05:56:32;-2.20;99.90
69261;DHT22;56378;52.404;20.816;2024-02-14T05:58:58;-2.20;99.90
69261;DHT22;56378;52.404;20.816;2024-02-14T06:01:23;-2.10;99.90
69261;DHT22;56378;52.404;20.816;2024-02-14T06:03:49;-2.10;99.90
69261;DHT22;56378;52.404;20.816;2024-02-14T06:06:15;-2.10;99.90
69261;DHT22;56378;52.404;20.816;2024-02-14T06:08:40;-2.10;99.90
69261;DHT22;56378;52.404;20.816;2024-02-14T06:11:06;-2.00;99.90
69261;DHT22;56378;52.404;20.816;2024-02-14T06:13:33;-2.00;99.90
69261;DHT22;56378;52.404;20.816;2024-02-14T06:15:58;-1.80;99.90
69261;DHT22;56378;52.404;20.816;2024-02-14T06:18:26;-1.60;99.90
69261;DHT22;56378;52.404;20.816;2024-02-14T06:20:52;-1.20;99.90
69261;DHT22;56378;52.404;20.816;2024-02-14T06:23:17;-0.80;99.90
69261;DHT22;56378;52.404;20.816;2024-02-14T06:25:43;-0.20;99.90
69261;DHT22;56378;52.404;20.816;2024-02-14T06:28:09;0.10;99.90
69261;DHT22;56378;52.404;20.816;2024-02-14T06:30:35;0.40;99.90
69261;DHT22;56378;52.404;20.816;2024-02-14T06:33:01;1.10;99.90
69261;DHT22;56378;52.404;20.816;2024-02-14T06:35:28;2.00;99.90
69261;DHT22;56378;52.404;20.816;2024-02-14T06:37:54;2.60;99.90
69261;DHT22;56378;52.404;20.816;2024-02-14T06:40:19;2.80;99.90
69261;DHT22;56378;52.404;20.816;2024-02-14T06:42:45;2.70;99.90
69261;DHT22;56378;52.404;20.816;2024-02-14T06:45:11;2.50;99.90
69261;DHT22;56378;52.404;20.816;2024-02-14T06:47:37;2.30;99.90
69261;DHT22;56378;52.404;20.816;2024-02-14T06:50:06;2.20;99.90
69261;DHT22;56378;52.404;20.816;2024-02-14T06:52:32;2.00;99.90
69261;DHT22;56378;52.404;20.816;2024-02-14T06:54:58;2.00;99.90
69261;DHT22;56378;52.404;20.816;2024-02-14T06:57:25;2.00;99.90
69261;DHT22;56378;52.404;20.816;2024-02-14T06:59:57;1.90;99.90
69261;DHT22;56378;52.404;20.816;2024-02-14T07:02:22;2.00;99.90
69261;DHT22;56378;52.404;20.816;2024-02-14T07:04:49;2.20;99.90
69261;DHT22;56378;52.404;20.816;2024-02-14T07:07:14;2.60;99.90
69261;DHT22;56378;52.404;20.816;2024-02-14T07:09:40;3.20;99.90
69261;DHT22;56378;52.404;20.816;2024-02-14T07:12:06;3.70;99.90
69261;DHT22;56378;52.404;20.816;2024-02-14T07:14:32;4.50;99.90
69261;DHT22;56378;52.404;20.816;2024-02-14T07:16:58;5.80;99.90
69261;DHT22;56378;52.404;20.816;2024-02-14T07:19:33;7.60;99.90
69261;DHT22;56378;52.404;20.816;2024-02-14T07:21:58;9.50;91.70
69261;DHT22;56378;52.404;20.816;2024-02-14T07:24:24;11.80;80.00
69261;DHT22;56378;52.404;20.816;2024-02-14T07:26:50;14.30;61.60
69261;DHT22;56378;52.404;20.816;2024-02-14T07:29:20;16.80;52.00
69261;DHT22;56378;52.404;20.816;2024-02-14T07:31:50;18.80;44.20
69261;DHT22;56378;52.404;20.816;2024-02-14T07:34:16;20.00;40.80
69261;DHT22;56378;52.404;20.816;2024-02-14T07:36:42;20.90;38.90
69261;DHT22;56378;52.404;20.816;2024-02-14T07:39:11;22.00;36.30
69261;DHT22;56378;52.404;20.816;2024-02-14T07:41:37;23.10;34.50
69261;DHT22;56378;52.404;20.816;2024-02-14T07:44:03;23.90;33.10
69261;DHT22;56378;52.404;20.816;2024-02-14T07:46:29;24.80;31.60
69261;DHT22;56378;52.404;20.816;2024-02-14T07:48:58;25.60;30.00
69261;DHT22;56378;52.404;20.816;2024-02-14T07:51:24;26.40;29.60
69261;DHT22;56378;52.404;20.816;2024-02-14T07:53:51;26.30;28.50
69261;DHT22;56378;52.404;20.816;2024-02-14T07:56:17;23.80;31.20
69261;DHT22;56378;52.404;20.816;2024-02-14T07:58:45;21.20;34.80
69261;DHT22;56378;52.404;20.816;2024-02-14T08:01:11;19.70;37.00
69261;DHT22;56378;52.404;20.816;2024-02-14T08:03:40;17.80;41.00
69261;DHT22;56378;52.404;20.816;2024-02-14T08:06:06;16.70;44.00
69261;DHT22;56378;52.404;20.816;2024-02-14T08:08:34;17.10;45.20
69261;DHT22;56378;52.404;20.816;2024-02-14T08:10:59;19.50;40.70
69261;DHT22;56378;52.404;20.816;2024-02-14T08:13:25;21.80;36.80
69261;DHT22;56378;52.404;20.816;2024-02-14T08:15:51;24.10;32.70
69261;DHT22;56378;52.404;20.816;2024-02-14T08:18:18;25.90;30.40
69261;DHT22;56378;52.404;20.816;2024-02-14T08:20:43;27.40;28.50
69261;DHT22;56378;52.404;20.816;2024-02-14T08:23:11;28.80;26.60
69261;DHT22;56378;52.404;20.816;2024-02-14T08:25:37;29.70;25.60
69261;DHT22;56378;52.404;20.816;2024-02-14T08:28:03;30.00;25.10
69261;DHT22;56378;52.404;20.816;2024-02-14T08:30:29;30.80;24.40
69261;DHT22;56378;52.404;20.816;2024-02-14T08:32:54;31.90;23.50
69261;DHT22;56378;52.404;20.816;2024-02-14T08:35:20;32.40;23.10
69261;DHT22;56378;52.404;20.816;2024-02-14T08:37:47;33.00;22.70
69261;DHT22;56378;52.404;20.816;2024-02-14T08:40:18;34.00;21.90
69261;DHT22;56378;52.404;20.816;2024-02-14T08:42:44;34.60;21.10
69261;DHT22;56378;52.404;20.816;2024-02-14T08:45:10;35.30;21.10
69261;DHT22;56378;52.404;20.816;2024-02-14T08:47:36;34.70;21.10
69261;DHT22;56378;52.404;20.816;2024-02-14T08:50:03;35.00;21.00
69261;DHT22;56378;52.404;20.816;2024-02-14T08:52:29;35.90;20.60
69261;DHT22;56378;52.404;20.816;2024-02-14T08:54:55;36.20;20.30
69261;DHT22;56378;52.404;20.816;2024-02-14T08:57:21;36.10;20.20
69261;DHT22;56378;52.404;20.816;2024-02-14T08:59:48;36.10;20.20
69261;DHT22;56378;52.404;20.816;2024-02-14T09:02:14;36.30;20.00
69261;DHT22;56378;52.404;20.816;2024-02-14T09:04:40;36.20;20.20
69261;DHT22;56378;52.404;20.816;2024-02-14T09:07:10;35.90;20.20
69261;DHT22;56378;52.404;20.816;2024-02-14T09:09:36;35.80;20.20
69261;DHT22;56378;52.404;20.816;2024-02-14T09:12:08;35.60;20.30
69261;DHT22;56378;52.404;20.816;2024-02-14T09:14:34;35.50;20.20
69261;DHT22;56378;52.404;20.816;2024-02-14T09:17:00;34.80;20.50
69261;DHT22;56378;52.404;20.816;2024-02-14T09:19:25;34.40;20.50
69261;DHT22;56378;52.404;20.816;2024-02-14T09:21:52;34.30;21.10
69261;DHT22;56378;52.404;20.816;2024-02-14T09:24:18;33.30;21.00
69261;DHT22;56378;52.404;20.816;2024-02-14T09:26:44;33.00;21.70
69261;DHT22;56378;52.404;20.816;2024-02-14T09:29:10;33.10;21.60
69261;DHT22;56378;52.404;20.816;2024-02-14T09:31:37;33.70;21.10
69261;DHT22;56378;52.404;20.816;2024-02-14T09:34:02;33.60;21.00
69261;DHT22;56378;52.404;20.816;2024-02-14T09:36:28;33.80;21.10
69261;DHT22;56378;52.404;20.816;2024-02-14T09:38:57;33.70;21.10
69261;DHT22;56378;52.404;20.816;2024-02-14T09:41:31;33.90;21.00
69261;DHT22;56378;52.404;20.816;2024-02-14T09:44:00;33.60;20.90
69261;DHT22;56378;52.404;20.816;2024-02-14T09:46:26;33.20;21.40
69261;DHT22;56378;52.404;20.816;2024-02-14T09:48:52;33.60;21.00
69261;DHT22;56378;52.404;20.816;2024-02-14T09:51:19;34.30;20.90
69261;DHT22;56378;52.404;20.816;2024-02-14T09:53:45;34.20;20.40
69261;DHT22;56378;52.404;20.816;2024-02-14T09:56:12;33.90;20.70
69261;DHT22;56378;52.404;20.816;2024-02-14T09:58:40;32.80;21.10
69261;DHT22;56378;52.404;20.816;2024-02-14T10:01:06;32.20;21.30
69261;DHT22;56378;52.404;20.816;2024-02-14T10:03:33;31.80;22.20
69261;DHT22;56378;52.404;20.816;2024-02-14T10:05:59;32.70;22.00
69261;DHT22;56378;52.404;20.816;2024-02-14T10:08:25;33.50;20.90
69261;DHT22;56378;52.404;20.816;2024-02-14T10:10:52;32.30;20.90
69261;DHT22;56378;52.404;20.816;2024-02-14T10:13:18;31.60;21.40
69261;DHT22;56378;52.404;20.816;2024-02-14T10:15:43;31.30;21.70
69261;DHT22;56378;52.404;20.816;2024-02-14T10:18:09;31.10;22.50
69261;DHT22;56378;52.404;20.816;2024-02-14T10:20:36;30.90;21.90
69261;DHT22;56378;52.404;20.816;2024-02-14T10:23:08;30.40;22.40
69261;DHT22;56378;52.404;20.816;2024-02-14T10:25:36;29.80;22.30
69261;DHT22;56378;52.404;20.816;2024-02-14T10:28:06;29.70;22.50
69261;DHT22;56378;52.404;20.816;2024-02-14T10:30:37;29.50;22.90
69261;DHT22;56378;52.404;20.816;2024-02-14T10:33:06;29.90;22.80
69261;DHT22;56378;52.404;20.816;2024-02-14T10:35:34;30.30;22.10
69261;DHT22;56378;52.404;20.816;2024-02-14T10:38:02;29.30;22.10
69261;DHT22;56378;52.404;20.816;2024-02-14T10:40:28;28.00;23.60
69261;DHT22;56378;52.404;20.816;2024-02-14T10:42:57;28.20;22.90
69261;DHT22;56378;52.404;20.816;2024-02-14T10:45:24;28.50;22.70
69261;DHT22;56378;52.404;20.816;2024-02-14T10:47:53;29.40;22.70
69261;DHT22;56378;52.404;20.816;2024-02-14T10:50:24;30.00;22.20
69261;DHT22;56378;52.404;20.816;2024-02-14T10:52:53;29.10;22.10
69261;DHT22;56378;52.404;20.816;2024-02-14T10:55:21;28.50;22.60
69261;DHT22;56378;52.404;20.816;2024-02-14T10:57:53;27.60;22.70
69261;DHT22;56378;52.404;20.816;2024-02-14T11:00:20;26.00;24.00
69261;DHT22;56378;52.404;20.816;2024-02-14T11:02:48;25.50;24.40
69261;DHT22;56378;52.404;20.816;2024-02-14T11:05:15;24.50;25.60
69261;DHT22;56378;52.404;20.816;2024-02-14T11:07:48;23.10;26.80
69261;DHT22;56378;52.404;20.816;2024-02-14T11:10:17;21.40;28.70
69261;DHT22;56378;52.404;20.816;2024-02-14T11:12:43;20.20;30.80
69261;DHT22;56378;52.404;20.816;2024-02-14T11:15:23;19.10;31.40
69261;DHT22;56378;52.404;20.816;2024-02-14T11:18:07;18.30;33.90
69261;DHT22;56378;52.404;20.816;2024-02-14T11:20:37;17.90;34.60
69261;DHT22;56378;52.404;20.816;2024-02-14T11:23:04;19.30;32.00
69261;DHT22;56378;52.404;20.816;2024-02-14T11:25:39;21.50;29.90
69261;DHT22;56378;52.404;20.816;2024-02-14T11:28:17;23.50;28.00
69261;DHT22;56378;52.404;20.816;2024-02-14T11:30:46;24.70;26.70
69261;DHT22;56378;52.404;20.816;2024-02-14T11:33:23;26.70;25.50
69261;DHT22;56378;52.404;20.816;2024-02-14T11:35:53;27.40;23.40
69261;DHT22;56378;52.404;20.816;2024-02-14T11:38:23;27.40;23.60
69261;DHT22;56378;52.404;20.816;2024-02-14T11:40:51;28.30;23.80
69261;DHT22;56378;52.404;20.816;2024-02-14T11:43:20;28.80;22.50
69261;DHT22;56378;52.404;20.816;2024-02-14T11:45:46;28.90;23.10
69261;DHT22;56378;52.404;20.816;2024-02-14T11:48:16;29.60;22.30
69261;DHT22;56378;52.404;20.816;2024-02-14T11:50:46;29.50;22.40
69261;DHT22;56378;52.404;20.816;2024-02-14T11:53:12;28.90;21.80
69261;DHT22;56378;52.404;20.816;2024-02-14T11:55:39;28.40;22.90
69261;DHT22;56378;52.404;20.816;2024-02-14T11:58:12;28.80;22.90
69261;DHT22;56378;52.404;20.816;2024-02-14T12:00:47;29.40;21.90
69261;DHT22;56378;52.404;20.816;2024-02-14T12:03:18;29.20;22.20
69261;DHT22;56378;52.404;20.816;2024-02-14T12:05:49;28.50;21.90
69261;DHT22;56378;52.404;20.816;2024-02-14T12:08:16;28.70;21.70
69261;DHT22;56378;52.404;20.816;2024-02-14T12:10:44;28.20;21.90
69261;DHT22;56378;52.404;20.816;2024-02-14T12:13:14;28.60;22.40
69261;DHT22;56378;52.404;20.816;2024-02-14T12:15:49;29.20;22.20
69261;DHT22;56378;52.404;20.816;2024-02-14T12:18:16;29.40;22.00
69261;DHT22;56378;52.404;20.816;2024-02-14T12:20:43;29.60;21.50
69261;DHT22;56378;52.404;20.816;2024-02-14T12:23:17;28.50;21.60
69261;DHT22;56378;52.404;20.816;2024-02-14T12:25:43;26.70;22.80
69261;DHT22;56378;52.404;20.816;2024-02-14T12:28:17;25.80;24.40
69261;DHT22;56378;52.404;20.816;2024-02-14T12:30:49;26.30;23.90
69261;DHT22;56378;52.404;20.816;2024-02-14T12:33:16;26.80;23.70
69261;DHT22;56378;52.404;20.816;2024-02-14T12:35:44;25.70;23.80
69261;DHT22;56378;52.404;20.816;2024-02-14T12:38:10;23.90;25.50
69261;DHT22;56378;52.404;20.816;2024-02-14T12:40:36;23.70;26.20
69261;DHT22;56378;52.404;20.816;2024-02-14T12:43:02;22.80;26.20
69261;DHT22;56378;52.404;20.816;2024-02-14T12:45:29;21.80;28.10
69261;DHT22;56378;52.404;20.816;2024-02-14T12:47:55;20.40;28.60
69261;DHT22;56378;52.404;20.816;2024-02-14T12:50:22;19.30;30.50
69261;DHT22;56378;52.404;20.816;2024-02-14T12:52:48;17.60;32.00
69261;DHT22;56378;52.404;20.816;2024-02-14T12:55:14;16.30;34.20
69261;DHT22;56378;52.404;20.816;2024-02-14T12:57:40;15.30;36.40
69261;DHT22;56378;52.404;20.816;2024-02-14T13:00:06;14.60;38.10
69261;DHT22;56378;52.404;20.816;2024-02-14T13:02:35;14.10;38.30
69261;DHT22;56378;52.404;20.816;2024-02-14T13:05:00;13.70;40.00
69261;DHT22;56378;52.404;20.816;2024-02-14T13:07:28;13.30;40.10
69261;DHT22;56378;52.404;20.816;2024-02-14T13:09:54;12.90;41.60
69261;DHT22;56378;52.404;20.816;2024-02-14T13:12:20;12.80;42.40
69261;DHT22;56378;52.404;20.816;2024-02-14T13:14:46;12.70;43.00
69261;DHT22;56378;52.404;20.816;2024-02-14T13:17:12;12.10;42.80
69261;DHT22;56378;52.404;20.816;2024-02-14T13:19:43;11.90;44.70
69261;DHT22;56378;52.404;20.816;2024-02-14T13:22:09;11.70;44.30
69261;DHT22;56378;52.404;20.816;2024-02-14T13:24:35;11.50;44.80
69261;DHT22;56378;52.404;20.816;2024-02-14T13:27:01;11.50;45.00
69261;DHT22;56378;52.404;20.816;2024-02-14T13:29:26;11.40;45.60
69261;DHT22;56378;52.404;20.816;2024-02-14T13:31:52;11.30;45.70
69261;DHT22;56378;52.404;20.816;2024-02-14T13:34:18;11.20;45.50
69261;DHT22;56378;52.404;20.816;2024-02-14T13:36:46;11.00;47.20
69261;DHT22;56378;52.404;20.816;2024-02-14T13:39:14;11.00;47.50
69261;DHT22;56378;52.404;20.816;2024-02-14T13:41:40;10.90;48.10
69261;DHT22;56378;52.404;20.816;2024-02-14T13:44:09;10.80;48.20
69261;DHT22;56378;52.404;20.816;2024-02-14T13:46:39;10.80;48.80
69261;DHT22;56378;52.404;20.816;2024-02-14T13:49:10;10.80;49.20
69261;DHT22;56378;52.404;20.816;2024-02-14T13:51:37;10.60;48.90
69261;DHT22;56378;52.404;20.816;2024-02-14T13:54:03;10.40;49.10
69261;DHT22;56378;52.404;20.816;2024-02-14T13:56:29;10.20;50.20
69261;DHT22;56378;52.404;20.816;2024-02-14T13:58:55;10.20;51.50
69261;DHT22;56378;52.404;20.816;2024-02-14T14:01:21;10.10;51.30
69261;DHT22;56378;52.404;20.816;2024-02-14T14:03:46;10.00;50.90
69261;DHT22;56378;52.404;20.816;2024-02-14T14:06:14;10.00;50.40
69261;DHT22;56378;52.404;20.816;2024-02-14T14:08:39;9.90;51.10
69261;DHT22;56378;52.404;20.816;2024-02-14T14:11:05;9.70;50.60
69261;DHT22;56378;52.404;20.816;2024-02-14T14:13:33;9.50;50.60
69261;DHT22;56378;52.404;20.816;2024-02-14T14:16:02;9.50;50.90
69261;DHT22;56378;52.404;20.816;2024-02-14T14:18:31;9.30;51.80
69261;DHT22;56378;52.404;20.816;2024-02-14T14:20:57;9.20;52.40
69261;DHT22;56378;52.404;20.816;2024-02-14T14:23:23;9.10;52.80
69261;DHT22;56378;52.404;20.816;2024-02-14T14:25:49;9.00;52.70
69261;DHT22;56378;52.404;20.816;2024-02-14T14:28:14;9.00;52.90
69261;DHT22;56378;52.404;20.816;2024-02-14T14:30:41;8.90;53.40
69261;DHT22;56378;52.404;20.816;2024-02-14T14:33:07;8.90;53.50
69261;DHT22;56378;52.404;20.816;2024-02-14T14:35:36;8.90;54.50
69261;DHT22;56378;52.404;20.816;2024-02-14T14:38:05;8.90;54.40
69261;DHT22;56378;52.404;20.816;2024-02-14T14:40:32;8.90;54.70
69261;DHT22;56378;52.404;20.816;2024-02-14T14:42:57;8.90;54.50
69261;DHT22;56378;52.404;20.816;2024-02-14T14:45:23;8.70;54.80
69261;DHT22;56378;52.404;20.816;2024-02-14T14:47:55;8.70;55.20
69261;DHT22;56378;52.404;20.816;2024-02-14T14:50:21;8.60;55.30
69261;DHT22;56378;52.404;20.816;2024-02-14T14:52:47;8.50;56.00
69261;DHT22;56378;52.404;20.816;2024-02-14T14:55:13;8.50;56.20
69261;DHT22;56378;52.404;20.816;2024-02-14T14:57:38;8.40;56.20
69261;DHT22;56378;52.404;20.816;2024-02-14T15:00:09;8.30;56.30
69261;DHT22;56378;52.404;20.816;2024-02-14T15:02:42;8.20;56.70
69261;DHT22;56378;52.404;20.816;2024-02-14T15:05:12;8.20;57.10
69261;DHT22;56378;52.404;20.816;2024-02-14T15:07:38;8.20;57.40
69261;DHT22;56378;52.404;20.816;2024-02-14T15:10:05;8.10;57.80
69261;DHT22;56378;52.404;20.816;2024-02-14T15:12:31;8.00;57.80
69261;DHT22;56378;52.404;20.816;2024-02-14T15:14:57;8.00;58.10
69261;DHT22;56378;52.404;20.816;2024-02-14T15:17:23;7.90;58.40
69261;DHT22;56378;52.404;20.816;2024-02-14T15:19:50;7.90;58.70
69261;DHT22;56378;52.404;20.816;2024-02-14T15:22:15;7.90;58.90
69261;DHT22;56378;52.404;20.816;2024-02-14T15:24:41;7.80;58.80
69261;DHT22;56378;52.404;20.816;2024-02-14T15:27:08;7.80;59.20
69261;DHT22;56378;52.404;20.816;2024-02-14T15:29:36;7.70;59.90
69261;DHT22;56378;52.404;20.816;2024-02-14T15:32:21;7.70;60.20